sensor_id;sensor_type;location;lat;lon;timestamp;P1;durP1;ratioP1;P2;durP2;ratioP2
81884;SDS011;71340;55.154;30.266;2023-07-13T00:00:27;2.95;;;2.50;;
81884;SDS011;71340;55.154;30.266;2023-07-13T00:02:52;5.72;;;2.78;;
81884;SDS011;71340;55.154;30.266;2023-07-13T00:05:23;4.53;;;2.75;;
81884;SDS011;71340;55.154;30.266;2023-07-13T00:07:49;5.90;;;3.20;;
81884;SDS011;71340;55.154;30.266;2023-07-13T00:10:15;4.43;;;2.60;;
81884;SDS011;71340;55.154;30.266;2023-07-13T00:12:41;3.53;;;2.30;;
81884;SDS011;71340;55.154;30.266;2023-07-13T00:15:09;3.35;;;2.67;;
81884;SDS011;71340;55.154;30.266;2023-07-13T00:17:41;3.63;;;2.50;;
81884;SDS011;71340;55.154;30.266;2023-07-13T00:20:07;3.33;;;2.60;;
81884;SDS011;71340;55.154;30.266;2023-07-13T00:22:33;4.82;;;2.80;;
81884;SDS011;71340;55.154;30.266;2023-07-13T00:24:59;2.90;;;2.50;;
81884;SDS011;71340;55.154;30.266;2023-07-13T00:27:24;3.10;;;2.60;;
81884;SDS011;71340;55.154;30.266;2023-07-13T00:29:54;3.65;;;2.72;;
81884;SDS011;71340;55.154;30.266;2023-07-13T00:32:20;6.93;;;2.73;;
81884;SDS011;71340;55.154;30.266;2023-07-13T00:34:45;6.80;;;3.13;;
81884;SDS011;71340;55.154;30.266;2023-07-13T00:37:12;4.90;;;2.53;;
81884;SDS011;71340;55.154;30.266;2023-07-13T00:39:37;3.20;;;2.50;;
81884;SDS011;71340;55.154;30.266;2023-07-13T00:42:04;4.97;;;2.58;;
81884;SDS011;71340;55.154;30.266;2023-07-13T00:44:30;6.47;;;2.73;;
81884;SDS011;71340;55.154;30.266;2023-07-13T00:46:56;4.53;;;2.70;;
81884;SDS011;71340;55.154;30.266;2023-07-13T00:49:23;3.63;;;2.70;;
81884;SDS011;71340;55.154;30.266;2023-07-13T00:51:52;3.80;;;2.70;;
81884;SDS011;71340;55.154;30.266;2023-07-13T00:54:27;3.97;;;2.70;;
81884;SDS011;71340;55.154;30.266;2023-07-13T00:57:15;5.30;;;2.60;;
81884;SDS011;71340;55.154;30.266;2023-07-13T00:59:46;7.55;;;2.97;;
81884;SDS011;71340;55.154;30.266;2023-07-13T01:02:14;3.77;;;3.20;;
81884;SDS011;71340;55.154;30.266;2023-07-13T01:04:41;5.47;;;3.03;;
81884;SDS011;71340;55.154;30.266;2023-07-13T01:07:09;4.53;;;3.20;;
81884;SDS011;71340;55.154;30.266;2023-07-13T01:09:37;4.33;;;3.10;;
81884;SDS011;71340;55.154;30.266;2023-07-13T01:12:02;4.40;;;2.90;;
81884;SDS011;71340;55.154;30.266;2023-07-13T01:14:28;5.43;;;3.23;;
81884;SDS011;71340;55.154;30.266;2023-07-13T01:16:54;5.78;;;3.03;;
81884;SDS011;71340;55.154;30.266;2023-07-13T01:19:39;3.65;;;2.80;;
81884;SDS011;71340;55.154;30.266;2023-07-13T01:22:17;3.73;;;2.57;;
81884;SDS011;71340;55.154;30.266;2023-07-13T01:24:45;3.63;;;2.97;;
81884;SDS011;71340;55.154;30.266;2023-07-13T01:27:13;5.32;;;2.90;;
81884;SDS011;71340;55.154;30.266;2023-07-13T01:29:40;4.30;;;2.95;;
81884;SDS011;71340;55.154;30.266;2023-07-13T01:32:11;3.88;;;3.00;;
81884;SDS011;71340;55.154;30.266;2023-07-13T01:34:41;4.93;;;2.83;;
81884;SDS011;71340;55.154;30.266;2023-07-13T01:37:11;5.97;;;3.10;;
81884;SDS011;71340;55.154;30.266;2023-07-13T01:39:37;2.97;;;2.67;;
81884;SDS011;71340;55.154;30.266;2023-07-13T01:42:02;3.33;;;2.92;;
81884;SDS011;71340;55.154;30.266;2023-07-13T01:44:28;4.83;;;3.00;;
81884;SDS011;71340;55.154;30.266;2023-07-13T01:46:53;3.23;;;2.67;;
81884;SDS011;71340;55.154;30.266;2023-07-13T01:49:19;3.30;;;2.73;;
81884;SDS011;71340;55.154;30.266;2023-07-13T01:51:44;2.90;;;2.60;;
81884;SDS011;71340;55.154;30.266;2023-07-13T01:54:09;4.10;;;3.03;;
81884;SDS011;71340;55.154;30.266;2023-07-13T01:56:35;3.87;;;2.80;;
81884;SDS011;71340;55.154;30.266;2023-07-13T01:59:00;4.10;;;3.10;;
81884;SDS011;71340;55.154;30.266;2023-07-13T02:01:25;4.60;;;3.00;;
81884;SDS011;71340;55.154;30.266;2023-07-13T02:03:51;3.90;;;3.10;;
81884;SDS011;71340;55.154;30.266;2023-07-13T02:06:16;5.33;;;2.73;;
81884;SDS011;71340;55.154;30.266;2023-07-13T02:08:42;4.35;;;2.70;;
81884;SDS011;71340;55.154;30.266;2023-07-13T02:11:07;5.47;;;3.03;;
81884;SDS011;71340;55.154;30.266;2023-07-13T02:13:33;5.20;;;3.25;;
81884;SDS011;71340;55.154;30.266;2023-07-13T02:15:59;3.50;;;3.20;;
81884;SDS011;71340;55.154;30.266;2023-07-13T02:18:25;7.03;;;3.10;;
81884;SDS011;71340;55.154;30.266;2023-07-13T02:20:50;3.90;;;3.07;;
81884;SDS011;71340;55.154;30.266;2023-07-13T02:23:16;3.85;;;3.00;;
81884;SDS011;71340;55.154;30.266;2023-07-13T02:25:41;3.65;;;3.17;;
81884;SDS011;71340;55.154;30.266;2023-07-13T02:28:06;4.00;;;3.20;;
81884;SDS011;71340;55.154;30.266;2023-07-13T02:30:32;4.10;;;2.90;;
81884;SDS011;71340;55.154;30.266;2023-07-13T02:32:59;4.55;;;3.03;;
81884;SDS011;71340;55.154;30.266;2023-07-13T02:35:24;4.37;;;3.10;;
81884;SDS011;71340;55.154;30.266;2023-07-13T02:37:50;3.93;;;2.80;;
81884;SDS011;71340;55.154;30.266;2023-07-13T02:40:15;7.50;;;3.33;;
81884;SDS011;71340;55.154;30.266;2023-07-13T02:42:41;4.63;;;3.05;;
81884;SDS011;71340;55.154;30.266;2023-07-13T02:45:07;6.70;;;3.10;;
81884;SDS011;71340;55.154;30.266;2023-07-13T02:47:33;7.50;;;3.40;;
81884;SDS011;71340;55.154;30.266;2023-07-13T02:49:59;4.93;;;3.20;;
81884;SDS011;71340;55.154;30.266;2023-07-13T02:52:24;4.73;;;2.70;;
81884;SDS011;71340;55.154;30.266;2023-07-13T02:54:50;4.30;;;2.97;;
81884;SDS011;71340;55.154;30.266;2023-07-13T02:57:15;4.65;;;3.33;;
81884;SDS011;71340;55.154;30.266;2023-07-13T02:59:41;3.20;;;2.90;;
81884;SDS011;71340;55.154;30.266;2023-07-13T03:02:06;10.13;;;3.30;;
81884;SDS011;71340;55.154;30.266;2023-07-13T03:04:32;4.67;;;3.40;;
81884;SDS011;71340;55.154;30.266;2023-07-13T03:06:57;4.35;;;3.20;;
81884;SDS011;71340;55.154;30.266;2023-07-13T03:09:23;3.83;;;3.30;;
81884;SDS011;71340;55.154;30.266;2023-07-13T03:11:52;4.35;;;2.90;;
81884;SDS011;71340;55.154;30.266;2023-07-13T03:14:21;4.68;;;3.08;;
81884;SDS011;71340;55.154;30.266;2023-07-13T03:16:47;3.30;;;2.90;;
81884;SDS011;71340;55.154;30.266;2023-07-13T03:19:13;4.55;;;3.25;;
81884;SDS011;71340;55.154;30.266;2023-07-13T03:21:38;3.83;;;3.13;;
81884;SDS011;71340;55.154;30.266;2023-07-13T03:24:04;4.10;;;3.40;;
81884;SDS011;71340;55.154;30.266;2023-07-13T03:26:30;3.63;;;3.13;;
81884;SDS011;71340;55.154;30.266;2023-07-13T03:28:55;4.70;;;3.37;;
81884;SDS011;71340;55.154;30.266;2023-07-13T03:31:21;7.23;;;3.60;;
81884;SDS011;71340;55.154;30.266;2023-07-13T03:33:48;5.15;;;3.00;;
81884;SDS011;71340;55.154;30.266;2023-07-13T03:36:18;5.13;;;3.30;;
81884;SDS011;71340;55.154;30.266;2023-07-13T03:38:49;5.20;;;3.20;;
81884;SDS011;71340;55.154;30.266;2023-07-13T03:41:16;6.47;;;3.10;;
81884;SDS011;71340;55.154;30.266;2023-07-13T03:43:42;5.07;;;3.23;;
81884;SDS011;71340;55.154;30.266;2023-07-13T03:46:08;4.75;;;3.25;;
81884;SDS011;71340;55.154;30.266;2023-07-13T03:48:33;4.00;;;3.13;;
81884;SDS011;71340;55.154;30.266;2023-07-13T03:50:59;4.00;;;3.30;;
81884;SDS011;71340;55.154;30.266;2023-07-13T03:53:25;4.17;;;3.47;;
81884;SDS011;71340;55.154;30.266;2023-07-13T03:55:50;4.13;;;3.20;;
81884;SDS011;71340;55.154;30.266;2023-07-13T03:58:32;3.97;;;3.23;;
81884;SDS011;71340;55.154;30.266;2023-07-13T04:01:03;7.57;;;3.25;;
81884;SDS011;71340;55.154;30.266;2023-07-13T04:03:30;6.07;;;3.50;;
81884;SDS011;71340;55.154;30.266;2023-07-13T04:05:57;6.75;;;3.70;;
81884;SDS011;71340;55.154;30.266;2023-07-13T04:08:27;5.10;;;3.90;;
81884;SDS011;71340;55.154;30.266;2023-07-13T04:10:53;4.07;;;3.50;;
81884;SDS011;71340;55.154;30.266;2023-07-13T04:13:19;4.97;;;3.70;;
81884;SDS011;71340;55.154;30.266;2023-07-13T04:15:44;5.40;;;3.43;;
81884;SDS011;71340;55.154;30.266;2023-07-13T04:18:09;6.93;;;4.00;;
81884;SDS011;71340;55.154;30.266;2023-07-13T04:20:35;5.97;;;3.87;;
81884;SDS011;71340;55.154;30.266;2023-07-13T04:23:00;4.33;;;3.87;;
81884;SDS011;71340;55.154;30.266;2023-07-13T04:25:26;5.75;;;4.03;;
81884;SDS011;71340;55.154;30.266;2023-07-13T04:27:52;7.75;;;4.05;;
81884;SDS011;71340;55.154;30.266;2023-07-13T04:30:18;5.17;;;3.73;;
81884;SDS011;71340;55.154;30.266;2023-07-13T04:32:44;5.70;;;3.90;;
81884;SDS011;71340;55.154;30.266;2023-07-13T04:35:10;7.07;;;3.90;;
81884;SDS011;71340;55.154;30.266;2023-07-13T04:37:35;5.50;;;4.17;;
81884;SDS011;71340;55.154;30.266;2023-07-13T04:40:01;5.80;;;3.87;;
81884;SDS011;71340;55.154;30.266;2023-07-13T04:42:26;8.02;;;4.03;;
81884;SDS011;71340;55.154;30.266;2023-07-13T04:44:51;6.53;;;3.70;;
81884;SDS011;71340;55.154;30.266;2023-07-13T04:47:20;6.10;;;3.60;;
81884;SDS011;71340;55.154;30.266;2023-07-13T04:49:46;12.68;;;3.80;;
81884;SDS011;71340;55.154;30.266;2023-07-13T04:52:11;6.53;;;3.90;;
81884;SDS011;71340;55.154;30.266;2023-07-13T04:54:37;7.10;;;4.15;;
81884;SDS011;71340;55.154;30.266;2023-07-13T04:57:03;7.80;;;4.00;;
81884;SDS011;71340;55.154;30.266;2023-07-13T04:59:31;4.20;;;3.60;;
81884;SDS011;71340;55.154;30.266;2023-07-13T05:02:00;4.95;;;3.63;;
81884;SDS011;71340;55.154;30.266;2023-07-13T05:04:26;6.18;;;3.92;;
81884;SDS011;71340;55.154;30.266;2023-07-13T05:06:52;4.30;;;3.53;;
81884;SDS011;71340;55.154;30.266;2023-07-13T05:09:17;6.17;;;3.80;;
81884;SDS011;71340;55.154;30.266;2023-07-13T05:11:43;7.50;;;3.70;;
81884;SDS011;71340;55.154;30.266;2023-07-13T05:14:08;7.05;;;4.20;;
81884;SDS011;71340;55.154;30.266;2023-07-13T05:16:34;4.22;;;3.40;;
81884;SDS011;71340;55.154;30.266;2023-07-13T05:19:00;4.63;;;3.67;;
81884;SDS011;71340;55.154;30.266;2023-07-13T05:21:26;6.60;;;4.00;;
81884;SDS011;71340;55.154;30.266;2023-07-13T05:23:51;7.07;;;3.97;;
81884;SDS011;71340;55.154;30.266;2023-07-13T05:26:16;12.23;;;3.80;;
81884;SDS011;71340;55.154;30.266;2023-07-13T05:28:42;8.20;;;3.80;;
81884;SDS011;71340;55.154;30.266;2023-07-13T05:31:08;5.23;;;4.20;;
81884;SDS011;71340;55.154;30.266;2023-07-13T05:33:34;8.07;;;3.80;;
81884;SDS011;71340;55.154;30.266;2023-07-13T05:35:59;10.00;;;3.87;;
81884;SDS011;71340;55.154;30.266;2023-07-13T05:38:28;8.50;;;3.90;;
81884;SDS011;71340;55.154;30.266;2023-07-13T05:40:54;5.00;;;4.00;;
81884;SDS011;71340;55.154;30.266;2023-07-13T05:43:21;7.40;;;3.60;;
81884;SDS011;71340;55.154;30.266;2023-07-13T05:45:46;10.17;;;4.30;;
81884;SDS011;71340;55.154;30.266;2023-07-13T05:48:11;5.00;;;3.33;;
81884;SDS011;71340;55.154;30.266;2023-07-13T05:50:37;7.17;;;4.00;;
81884;SDS011;71340;55.154;30.266;2023-07-13T05:53:02;7.97;;;3.38;;
81884;SDS011;71340;55.154;30.266;2023-07-13T05:55:28;8.83;;;3.80;;
81884;SDS011;71340;55.154;30.266;2023-07-13T05:57:53;7.00;;;3.90;;
81884;SDS011;71340;55.154;30.266;2023-07-13T06:00:18;8.33;;;3.70;;
81884;SDS011;71340;55.154;30.266;2023-07-13T06:02:45;7.18;;;3.90;;
81884;SDS011;71340;55.154;30.266;2023-07-13T06:05:10;6.37;;;3.70;;
81884;SDS011;71340;55.154;30.266;2023-07-13T06:07:35;3.83;;;3.43;;
81884;SDS011;71340;55.154;30.266;2023-07-13T06:10:01;5.13;;;3.75;;
81884;SDS011;71340;55.154;30.266;2023-07-13T06:12:27;5.90;;;3.33;;
81884;SDS011;71340;55.154;30.266;2023-07-13T06:14:52;6.28;;;3.67;;
81884;SDS011;71340;55.154;30.266;2023-07-13T06:17:18;9.17;;;3.70;;
81884;SDS011;71340;55.154;30.266;2023-07-13T06:19:43;7.60;;;3.83;;
81884;SDS011;71340;55.154;30.266;2023-07-13T06:22:09;7.70;;;3.87;;
81884;SDS011;71340;55.154;30.266;2023-07-13T06:24:34;7.75;;;4.25;;
81884;SDS011;71340;55.154;30.266;2023-07-13T06:27:00;5.03;;;3.60;;
81884;SDS011;71340;55.154;30.266;2023-07-13T06:29:25;7.17;;;3.73;;
81884;SDS011;71340;55.154;30.266;2023-07-13T06:31:50;5.63;;;3.83;;
81884;SDS011;71340;55.154;30.266;2023-07-13T06:34:16;5.87;;;3.57;;
81884;SDS011;71340;55.154;30.266;2023-07-13T06:36:41;10.13;;;4.30;;
81884;SDS011;71340;55.154;30.266;2023-07-13T06:39:07;4.87;;;3.50;;
81884;SDS011;71340;55.154;30.266;2023-07-13T06:41:32;5.95;;;4.03;;
81884;SDS011;71340;55.154;30.266;2023-07-13T06:43:58;7.40;;;3.77;;
81884;SDS011;71340;55.154;30.266;2023-07-13T06:46:23;7.40;;;4.28;;
81884;SDS011;71340;55.154;30.266;2023-07-13T06:48:49;6.47;;;3.33;;
81884;SDS011;71340;55.154;30.266;2023-07-13T06:51:14;7.23;;;3.83;;
81884;SDS011;71340;55.154;30.266;2023-07-13T06:53:40;8.77;;;3.70;;
81884;SDS011;71340;55.154;30.266;2023-07-13T06:56:05;7.40;;;3.85;;
81884;SDS011;71340;55.154;30.266;2023-07-13T06:58:31;5.77;;;3.77;;
81884;SDS011;71340;55.154;30.266;2023-07-13T07:00:56;5.00;;;3.30;;
81884;SDS011;71340;55.154;30.266;2023-07-13T07:03:21;5.17;;;3.40;;
81884;SDS011;71340;55.154;30.266;2023-07-13T07:05:47;5.43;;;3.80;;
81884;SDS011;71340;55.154;30.266;2023-07-13T07:08:12;4.28;;;3.20;;
81884;SDS011;71340;55.154;30.266;2023-07-13T07:10:37;8.13;;;3.43;;
81884;SDS011;71340;55.154;30.266;2023-07-13T07:13:03;5.03;;;3.13;;
81884;SDS011;71340;55.154;30.266;2023-07-13T07:15:29;10.53;;;3.10;;
81884;SDS011;71340;55.154;30.266;2023-07-13T07:17:54;7.03;;;3.40;;
81884;SDS011;71340;55.154;30.266;2023-07-13T07:20:20;7.33;;;3.20;;
81884;SDS011;71340;55.154;30.266;2023-07-13T07:22:45;6.27;;;3.30;;
81884;SDS011;71340;55.154;30.266;2023-07-13T07:25:11;6.60;;;3.97;;
81884;SDS011;71340;55.154;30.266;2023-07-13T07:27:37;9.98;;;3.30;;
81884;SDS011;71340;55.154;30.266;2023-07-13T07:30:03;5.53;;;3.10;;
81884;SDS011;71340;55.154;30.266;2023-07-13T07:32:29;6.53;;;3.20;;
81884;SDS011;71340;55.154;30.266;2023-07-13T07:34:56;7.20;;;3.25;;
81884;SDS011;71340;55.154;30.266;2023-07-13T07:37:22;6.43;;;2.70;;
81884;SDS011;71340;55.154;30.266;2023-07-13T07:39:47;5.07;;;3.22;;
81884;SDS011;71340;55.154;30.266;2023-07-13T07:42:13;7.13;;;3.10;;
81884;SDS011;71340;55.154;30.266;2023-07-13T07:44:40;3.73;;;3.30;;
81884;SDS011;71340;55.154;30.266;2023-07-13T07:47:06;4.30;;;3.33;;
81884;SDS011;71340;55.154;30.266;2023-07-13T07:49:31;7.07;;;3.03;;
81884;SDS011;71340;55.154;30.266;2023-07-13T07:51:57;4.37;;;3.60;;
81884;SDS011;71340;55.154;30.266;2023-07-13T07:54:22;5.40;;;3.10;;
81884;SDS011;71340;55.154;30.266;2023-07-13T07:56:47;4.37;;;3.40;;
81884;SDS011;71340;55.154;30.266;2023-07-13T07:59:13;3.93;;;3.40;;
81884;SDS011;71340;55.154;30.266;2023-07-13T08:01:38;3.33;;;3.00;;
81884;SDS011;71340;55.154;30.266;2023-07-13T08:04:03;5.10;;;3.50;;
81884;SDS011;71340;55.154;30.266;2023-07-13T08:06:29;8.77;;;3.05;;
81884;SDS011;71340;55.154;30.266;2023-07-13T08:08:58;9.38;;;3.38;;
81884;SDS011;71340;55.154;30.266;2023-07-13T08:11:24;6.67;;;3.47;;
81884;SDS011;71340;55.154;30.266;2023-07-13T08:13:50;5.10;;;3.43;;
81884;SDS011;71340;55.154;30.266;2023-07-13T08:16:15;6.45;;;3.03;;
81884;SDS011;71340;55.154;30.266;2023-07-13T08:18:41;6.83;;;3.07;;
81884;SDS011;71340;55.154;30.266;2023-07-13T08:21:07;4.87;;;3.50;;
81884;SDS011;71340;55.154;30.266;2023-07-13T08:23:33;9.30;;;3.40;;
81884;SDS011;71340;55.154;30.266;2023-07-13T08:25:59;12.93;;;3.05;;
81884;SDS011;71340;55.154;30.266;2023-07-13T08:28:26;7.97;;;3.90;;
81884;SDS011;71340;55.154;30.266;2023-07-13T08:30:52;7.93;;;3.30;;
81884;SDS011;71340;55.154;30.266;2023-07-13T08:33:18;9.15;;;3.28;;
81884;SDS011;71340;55.154;30.266;2023-07-13T08:35:48;6.70;;;3.30;;
81884;SDS011;71340;55.154;30.266;2023-07-13T08:38:14;4.68;;;3.00;;
81884;SDS011;71340;55.154;30.266;2023-07-13T08:40:41;4.75;;;3.38;;
81884;SDS011;71340;55.154;30.266;2023-07-13T08:43:09;6.17;;;3.97;;
81884;SDS011;71340;55.154;30.266;2023-07-13T08:45:42;5.55;;;3.30;;
81884;SDS011;71340;55.154;30.266;2023-07-13T08:48:18;6.32;;;3.60;;
81884;SDS011;71340;55.154;30.266;2023-07-13T08:51:07;10.45;;;3.53;;
81884;SDS011;71340;55.154;30.266;2023-07-13T08:53:40;4.77;;;3.67;;
81884;SDS011;71340;55.154;30.266;2023-07-13T08:56:15;6.28;;;4.18;;
81884;SDS011;71340;55.154;30.266;2023-07-13T08:58:43;7.28;;;3.63;;
81884;SDS011;71340;55.154;30.266;2023-07-13T09:04:08;9.57;;;3.63;;
81884;SDS011;71340;55.154;30.266;2023-07-13T09:11:45;6.63;;;3.50;;
81884;SDS011;71340;55.154;30.266;2023-07-13T09:17:05;7.50;;;3.70;;
81884;SDS011;71340;55.154;30.266;2023-07-13T09:19:35;6.25;;;3.28;;
81884;SDS011;71340;55.154;30.266;2023-07-13T09:22:02;7.10;;;3.33;;
81884;SDS011;71340;55.154;30.266;2023-07-13T09:27:22;4.13;;;3.37;;
81884;SDS011;71340;55.154;30.266;2023-07-13T09:30:07;5.80;;;3.45;;
81884;SDS011;71340;55.154;30.266;2023-07-13T09:32:50;5.82;;;3.60;;
81884;SDS011;71340;55.154;30.266;2023-07-13T09:35:27;4.90;;;3.90;;
81884;SDS011;71340;55.154;30.266;2023-07-13T09:37:57;7.75;;;4.25;;
81884;SDS011;71340;55.154;30.266;2023-07-13T09:43:28;7.00;;;3.80;;
81884;SDS011;71340;55.154;30.266;2023-07-13T09:45:54;8.33;;;4.10;;
81884;SDS011;71340;55.154;30.266;2023-07-13T09:48:20;6.25;;;4.10;;
81884;SDS011;71340;55.154;30.266;2023-07-13T09:50:45;5.70;;;4.00;;
81884;SDS011;71340;55.154;30.266;2023-07-13T09:53:14;12.20;;;8.63;;
81884;SDS011;71340;55.154;30.266;2023-07-13T09:55:42;8.88;;;4.93;;
81884;SDS011;71340;55.154;30.266;2023-07-13T09:58:15;6.35;;;3.80;;
81884;SDS011;71340;55.154;30.266;2023-07-13T10:00:54;4.83;;;4.30;;
81884;SDS011;71340;55.154;30.266;2023-07-13T10:03:25;4.82;;;4.00;;
81884;SDS011;71340;55.154;30.266;2023-07-13T10:05:53;5.78;;;4.35;;
81884;SDS011;71340;55.154;30.266;2023-07-13T10:08:37;9.43;;;4.07;;
81884;SDS011;71340;55.154;30.266;2023-07-13T10:11:10;7.25;;;4.95;;
81884;SDS011;71340;55.154;30.266;2023-07-13T10:13:42;8.73;;;4.65;;
81884;SDS011;71340;55.154;30.266;2023-07-13T10:16:14;5.60;;;4.53;;
81884;SDS011;71340;55.154;30.266;2023-07-13T10:18:47;6.72;;;3.80;;
81884;SDS011;71340;55.154;30.266;2023-07-13T10:21:19;8.50;;;5.28;;
81884;SDS011;71340;55.154;30.266;2023-07-13T10:23:54;6.10;;;4.72;;
81884;SDS011;71340;55.154;30.266;2023-07-13T10:26:27;8.10;;;4.70;;
81884;SDS011;71340;55.154;30.266;2023-07-13T10:28:57;6.63;;;4.22;;
81884;SDS011;71340;55.154;30.266;2023-07-13T10:31:32;5.93;;;4.25;;
81884;SDS011;71340;55.154;30.266;2023-07-13T10:34:01;8.03;;;4.10;;
81884;SDS011;71340;55.154;30.266;2023-07-13T10:36:34;7.13;;;4.15;;
81884;SDS011;71340;55.154;30.266;2023-07-13T10:41:46;6.33;;;4.90;;
81884;SDS011;71340;55.154;30.266;2023-07-13T10:44:21;8.27;;;4.55;;
81884;SDS011;71340;55.154;30.266;2023-07-13T10:46:52;12.10;;;4.40;;
81884;SDS011;71340;55.154;30.266;2023-07-13T10:49:19;6.70;;;4.70;;
81884;SDS011;71340;55.154;30.266;2023-07-13T10:51:46;6.60;;;4.40;;
81884;SDS011;71340;55.154;30.266;2023-07-13T10:56:52;6.60;;;4.60;;
81884;SDS011;71340;55.154;30.266;2023-07-13T10:59:33;10.23;;;5.30;;
81884;SDS011;71340;55.154;30.266;2023-07-13T11:04:27;16.00;;;5.33;;
81884;SDS011;71340;55.154;30.266;2023-07-13T11:07:16;8.38;;;4.47;;
81884;SDS011;71340;55.154;30.266;2023-07-13T11:09:49;7.15;;;4.47;;
81884;SDS011;71340;55.154;30.266;2023-07-13T11:17:46;21.17;;;4.90;;
81884;SDS011;71340;55.154;30.266;2023-07-13T11:23:26;8.90;;;4.50;;
81884;SDS011;71340;55.154;30.266;2023-07-13T11:25:34;13.43;;;5.40;;
81884;SDS011;71340;55.154;30.266;2023-07-13T11:30:33;10.80;;;5.75;;
81884;SDS011;71340;55.154;30.266;2023-07-13T11:35:32;7.35;;;5.13;;
81884;SDS011;71340;55.154;30.266;2023-07-13T11:38:01;6.07;;;4.78;;
81884;SDS011;71340;55.154;30.266;2023-07-13T11:40:27;9.70;;;4.83;;
81884;SDS011;71340;55.154;30.266;2023-07-13T11:43:01;9.63;;;4.68;;
81884;SDS011;71340;55.154;30.266;2023-07-13T11:45:27;9.43;;;4.63;;
81884;SDS011;71340;55.154;30.266;2023-07-13T11:47:53;7.40;;;4.73;;
81884;SDS011;71340;55.154;30.266;2023-07-13T11:50:21;11.43;;;5.43;;
81884;SDS011;71340;55.154;30.266;2023-07-13T11:52:49;7.95;;;4.90;;
81884;SDS011;71340;55.154;30.266;2023-07-13T11:55:17;7.23;;;4.70;;
81884;SDS011;71340;55.154;30.266;2023-07-13T11:57:49;6.55;;;5.07;;
81884;SDS011;71340;55.154;30.266;2023-07-13T12:00:19;9.02;;;5.15;;
81884;SDS011;71340;55.154;30.266;2023-07-13T12:02:48;7.77;;;5.60;;
81884;SDS011;71340;55.154;30.266;2023-07-13T12:05:16;9.00;;;5.93;;
81884;SDS011;71340;55.154;30.266;2023-07-13T12:07:43;11.88;;;6.00;;
81884;SDS011;71340;55.154;30.266;2023-07-13T12:10:20;10.68;;;5.38;;
81884;SDS011;71340;55.154;30.266;2023-07-13T12:15:32;7.20;;;5.15;;
81884;SDS011;71340;55.154;30.266;2023-07-13T12:18:15;8.88;;;5.40;;
81884;SDS011;71340;55.154;30.266;2023-07-13T12:20:44;5.77;;;5.17;;
81884;SDS011;71340;55.154;30.266;2023-07-13T12:25:55;7.05;;;4.80;;
81884;SDS011;71340;55.154;30.266;2023-07-13T12:28:28;7.20;;;5.10;;
81884;SDS011;71340;55.154;30.266;2023-07-13T12:30:58;11.30;;;4.90;;
81884;SDS011;71340;55.154;30.266;2023-07-13T12:33:26;8.57;;;4.45;;
81884;SDS011;71340;55.154;30.266;2023-07-13T12:35:53;11.15;;;4.63;;
81884;SDS011;71340;55.154;30.266;2023-07-13T12:38:19;13.97;;;5.67;;
81884;SDS011;71340;55.154;30.266;2023-07-13T12:40:49;8.17;;;5.33;;
81884;SDS011;71340;55.154;30.266;2023-07-13T12:43:16;7.90;;;4.80;;
81884;SDS011;71340;55.154;30.266;2023-07-13T12:45:59;8.77;;;5.30;;
81884;SDS011;71340;55.154;30.266;2023-07-13T12:48:27;9.27;;;5.75;;
81884;SDS011;71340;55.154;30.266;2023-07-13T12:50:53;8.80;;;5.77;;
81884;SDS011;71340;55.154;30.266;2023-07-13T12:53:21;7.38;;;5.20;;
81884;SDS011;71340;55.154;30.266;2023-07-13T13:01:03;9.27;;;5.70;;
81884;SDS011;71340;55.154;30.266;2023-07-13T13:03:35;10.15;;;5.50;;
81884;SDS011;71340;55.154;30.266;2023-07-13T13:06:04;12.17;;;5.70;;
81884;SDS011;71340;55.154;30.266;2023-07-13T13:08:32;6.15;;;5.13;;
81884;SDS011;71340;55.154;30.266;2023-07-13T13:10:58;7.05;;;4.70;;
81884;SDS011;71340;55.154;30.266;2023-07-13T13:13:23;6.87;;;4.83;;
81884;SDS011;71340;55.154;30.266;2023-07-13T13:15:49;7.22;;;4.60;;
81884;SDS011;71340;55.154;30.266;2023-07-13T13:18:18;6.40;;;5.43;;
81884;SDS011;71340;55.154;30.266;2023-07-13T13:20:48;10.07;;;6.03;;
81884;SDS011;71340;55.154;30.266;2023-07-13T13:23:19;5.40;;;4.90;;
81884;SDS011;71340;55.154;30.266;2023-07-13T13:25:46;6.47;;;5.50;;
81884;SDS011;71340;55.154;30.266;2023-07-13T13:28:15;7.93;;;5.97;;
81884;SDS011;71340;55.154;30.266;2023-07-13T13:30:42;7.78;;;6.18;;
81884;SDS011;71340;55.154;30.266;2023-07-13T13:33:11;8.20;;;5.57;;
81884;SDS011;71340;55.154;30.266;2023-07-13T13:35:38;8.30;;;5.60;;
81884;SDS011;71340;55.154;30.266;2023-07-13T13:38:12;10.75;;;5.78;;
81884;SDS011;71340;55.154;30.266;2023-07-13T13:40:42;18.88;;;5.40;;
81884;SDS011;71340;55.154;30.266;2023-07-13T13:45:41;12.77;;;5.65;;
81884;SDS011;71340;55.154;30.266;2023-07-13T13:48:12;6.70;;;4.70;;
81884;SDS011;71340;55.154;30.266;2023-07-13T13:50:39;5.97;;;5.37;;
81884;SDS011;71340;55.154;30.266;2023-07-13T13:53:07;6.22;;;5.43;;
81884;SDS011;71340;55.154;30.266;2023-07-13T13:55:35;6.33;;;5.33;;
81884;SDS011;71340;55.154;30.266;2023-07-13T13:58:00;10.60;;;5.50;;
81884;SDS011;71340;55.154;30.266;2023-07-13T14:00:25;8.00;;;5.60;;
81884;SDS011;71340;55.154;30.266;2023-07-13T14:02:51;16.73;;;5.83;;
81884;SDS011;71340;55.154;30.266;2023-07-13T14:05:21;11.68;;;6.47;;
81884;SDS011;71340;55.154;30.266;2023-07-13T14:07:47;10.87;;;6.07;;
81884;SDS011;71340;55.154;30.266;2023-07-13T14:10:16;16.65;;;14.80;;
81884;SDS011;71340;55.154;30.266;2023-07-13T14:12:43;11.53;;;7.60;;
81884;SDS011;71340;55.154;30.266;2023-07-13T14:15:26;10.38;;;5.63;;
81884;SDS011;71340;55.154;30.266;2023-07-13T14:17:53;57.63;;;34.95;;
81884;SDS011;71340;55.154;30.266;2023-07-13T14:20:20;34.37;;;20.47;;
81884;SDS011;71340;55.154;30.266;2023-07-13T14:22:49;25.90;;;11.13;;
81884;SDS011;71340;55.154;30.266;2023-07-13T14:25:15;30.20;;;8.27;;
81884;SDS011;71340;55.154;30.266;2023-07-13T14:27:41;9.20;;;6.40;;
81884;SDS011;71340;55.154;30.266;2023-07-13T14:30:12;11.93;;;5.97;;
81884;SDS011;71340;55.154;30.266;2023-07-13T14:32:37;8.55;;;5.00;;
81884;SDS011;71340;55.154;30.266;2023-07-13T14:35:03;7.63;;;5.77;;
81884;SDS011;71340;55.154;30.266;2023-07-13T14:37:28;6.03;;;4.93;;
81884;SDS011;71340;55.154;30.266;2023-07-13T14:39:56;10.33;;;7.10;;
81884;SDS011;71340;55.154;30.266;2023-07-13T14:42:21;5.63;;;5.13;;
81884;SDS011;71340;55.154;30.266;2023-07-13T14:44:47;7.60;;;5.15;;
81884;SDS011;71340;55.154;30.266;2023-07-13T14:47:12;8.30;;;5.30;;
81884;SDS011;71340;55.154;30.266;2023-07-13T14:49:44;11.57;;;5.97;;
81884;SDS011;71340;55.154;30.266;2023-07-13T14:54:44;6.70;;;5.13;;
81884;SDS011;71340;55.154;30.266;2023-07-13T14:57:14;9.55;;;5.72;;
81884;SDS011;71340;55.154;30.266;2023-07-13T14:59:44;7.57;;;4.90;;
81884;SDS011;71340;55.154;30.266;2023-07-13T15:02:25;6.00;;;5.10;;
81884;SDS011;71340;55.154;30.266;2023-07-13T15:04:54;6.40;;;4.50;;
81884;SDS011;71340;55.154;30.266;2023-07-13T15:07:20;7.18;;;5.20;;
81884;SDS011;71340;55.154;30.266;2023-07-13T15:09:46;7.27;;;4.90;;
81884;SDS011;71340;55.154;30.266;2023-07-13T15:12:13;9.30;;;5.47;;
81884;SDS011;71340;55.154;30.266;2023-07-13T15:14:38;10.45;;;4.90;;
81884;SDS011;71340;55.154;30.266;2023-07-13T15:17:04;6.77;;;4.53;;
81884;SDS011;71340;55.154;30.266;2023-07-13T15:19:30;6.07;;;4.72;;
81884;SDS011;71340;55.154;30.266;2023-07-13T15:21:56;6.27;;;5.03;;
81884;SDS011;71340;55.154;30.266;2023-07-13T15:24:22;10.68;;;4.72;;
81884;SDS011;71340;55.154;30.266;2023-07-13T15:26:48;7.93;;;4.65;;
81884;SDS011;71340;55.154;30.266;2023-07-13T15:29:14;7.23;;;4.80;;